Time;durP1;ratioP1;P1;durP2;ratioP2;P2;SDS_P1;SDS_P2;PMS_P1;PMS_P2;Temp;Humidity;BMP_temperature;BMP_pressure;BME280_temperature;BME280_humidity;BME280_pressure;Samples;Min_cycle;Max_cycle;Signal;HPM_P1;HPM_P2
2021/01/12 00:01:52;;;;;;;22.52;16.27;;;4.10;99.90;;;;;;5094369;28;20027;-47
2021/01/12 00:04:17;;;;;;;23.77;16.63;;;4.10;99.90;;;;;;5100438;28;20025;-46
2021/01/12 00:06:43;;;;;;;24.60;17.48;;;4.10;99.90;;;;;;5096177;28;20024;-47
2021/01/12 00:09:09;;;;;;;24.40;17.38;;;4.10;99.90;;;;;;5092491;28;20016;-46
2021/01/12 00:11:34;;;;;;;24.40;17.02;;;4.20;99.90;;;;;;5059227;28;20396;-45
2021/01/12 00:14:00;;;;;;;25.40;17.02;;;4.20;99.90;;;;;;5075797;28;20048;-47
2021/01/12 00:16:26;;;;;;;22.13;16.25;;;4.20;99.90;;;;;;5078751;28;20452;-46
2021/01/12 00:18:52;;;;;;;21.15;16.88;;;4.20;99.90;;;;;;5074991;28;20109;-48
2021/01/12 00:21:25;;;;;;;22.65;17.02;;;4.20;99.90;;;;;;5083505;28;20032;-46
2021/01/12 00:23:50;;;;;;;24.00;16.70;;;4.30;99.90;;;;;;5078682;28;20070;-46
2021/01/12 00:26:16;;;;;;;21.25;17.17;;;4.30;99.90;;;;;;5081330;28;20483;-47
2021/01/12 00:28:41;;;;;;;24.00;17.15;;;4.30;99.90;;;;;;5078739;28;20024;-46
2021/01/12 00:31:07;;;;;;;24.20;17.13;;;4.30;99.90;;;;;;5065354;28;20136;-46
2021/01/12 00:33:33;;;;;;;23.42;17.42;;;4.30;99.90;;;;;;5064599;28;20047;-46
2021/01/12 00:36:08;;;;;;;25.23;18.35;;;4.30;99.90;;;;;;5075731;28;20052;-44
2021/01/12 00:38:34;;;;;;;23.08;16.50;;;4.40;99.90;;;;;;5071391;28;20032;-46
2021/01/12 00:41:05;;;;;;;24.52;18.55;;;4.40;99.90;;;;;;5069498;28;20092;-44
2021/01/12 00:43:31;;;;;;;24.45;17.58;;;4.40;99.90;;;;;;5077186;28;20043;-47
2021/01/12 00:45:57;;;;;;;24.38;18.52;;;4.40;99.90;;;;;;5082819;28;20498;-45
2021/01/12 00:48:22;;;;;;;23.88;16.63;;;4.40;99.90;;;;;;5065872;28;20020;-47
2021/01/12 00:50:48;;;;;;;24.40;16.90;;;4.50;99.90;;;;;;5072051;28;20115;-45
2021/01/12 00:53:13;;;;;;;24.13;17.42;;;4.50;99.90;;;;;;5070800;28;20461;-47
2021/01/12 00:55:39;;;;;;;22.38;16.75;;;4.60;99.90;;;;;;5081987;28;20521;-45
2021/01/12 00:58:05;;;;;;;25.10;17.27;;;4.60;99.90;;;;;;5083240;28;20559;-45
2021/01/12 01:00:31;;;;;;;26.33;18.65;;;4.60;99.90;;;;;;5086586;28;20498;-46
2021/01/12 01:02:56;;;;;;;25.73;17.67;;;4.60;99.90;;;;;;5070504;28;20036;-46
2021/01/12 01:05:22;;;;;;;24.20;17.48;;;4.70;99.90;;;;;;5067303;28;20021;-44
2021/01/12 01:07:48;;;;;;;26.77;18.35;;;4.70;99.90;;;;;;5080130;28;20585;-46
2021/01/12 01:10:14;;;;;;;26.65;18.25;;;4.70;99.90;;;;;;5081309;28;20430;-48
2021/01/12 01:12:39;;;;;;;26.25;18.35;;;4.70;99.90;;;;;;5075956;28;20230;-45
2021/01/12 01:15:06;;;;;;;22.63;17.17;;;4.70;99.90;;;;;;5074575;28;20596;-44
2021/01/12 01:17:34;;;;;;;21.77;16.17;;;4.70;99.90;;;;;;5072548;28;20019;-45
2021/01/12 01:20:00;;;;;;;23.52;16.65;;;4.80;99.90;;;;;;5079566;28;20050;-45
2021/01/12 01:22:25;;;;;;;18.90;14.60;;;4.80;99.90;;;;;;5080111;28;20020;-44
2021/01/12 01:24:51;;;;;;;18.60;13.77;;;4.80;99.90;;;;;;5083969;28;20531;-47
2021/01/12 01:27:16;;;;;;;18.58;14.15;;;4.90;99.90;;;;;;5063953;28;20032;-44
2021/01/12 01:29:43;;;;;;;18.75;13.60;;;4.90;99.90;;;;;;5071963;28;20020;-44
2021/01/12 01:32:10;;;;;;;18.52;13.88;;;4.90;99.90;;;;;;5080898;28;20078;-45
2021/01/12 01:34:36;;;;;;;19.48;12.70;;;4.90;99.90;;;;;;5076415;28;20032;-44
2021/01/12 01:37:02;;;;;;;16.63;12.65;;;5.00;99.90;;;;;;5086214;28;20390;-46
2021/01/12 01:39:27;;;;;;;16.25;11.60;;;5.00;99.90;;;;;;5082712;28;20030;-46
2021/01/12 01:41:55;;;;;;;13.57;11.20;;;5.00;99.90;;;;;;5071029;28;20029;-45
2021/01/12 01:44:20;;;;;;;13.23;10.38;;;5.00;99.90;;;;;;5074179;28;20025;-44
2021/01/12 01:46:46;;;;;;;15.23;10.20;;;5.00;99.90;;;;;;5078575;28;20017;-47
2021/01/12 01:49:11;;;;;;;15.13;11.45;;;5.10;99.90;;;;;;5086500;28;20026;-46
2021/01/12 01:51:39;;;;;;;14.57;10.90;;;5.10;99.90;;;;;;5079754;28;20592;-49
2021/01/12 01:54:05;;;;;;;14.63;10.23;;;5.00;99.90;;;;;;5077000;28;20027;-46
2021/01/12 01:56:31;;;;;;;14.05;9.15;;;5.10;99.90;;;;;;5081702;28;20027;-46
2021/01/12 01:58:56;;;;;;;12.90;9.30;;;5.10;99.90;;;;;;5078820;28;20036;-49
2021/01/12 02:01:22;;;;;;;12.80;9.55;;;5.10;99.90;;;;;;5059192;28;20044;-45
2021/01/12 02:03:59;;;;;;;14.15;9.75;;;5.10;99.90;;;;;;5068183;28;20027;-46
2021/01/12 02:06:32;;;;;;;12.75;9.98;;;5.20;99.90;;;;;;5076705;28;20077;-47
2021/01/12 02:09:19;;;;;;;11.73;8.70;;;5.10;99.90;;;;;;5089185;28;20492;-44
2021/01/12 02:11:51;;;;;;;;;;;5.20;99.90;;;;;;5089679;28;20024;-45
2021/01/12 02:14:20;;;;;;;11.00;8.13;;;5.20;99.90;;;;;;5087846;28;19904;-45
2021/01/12 02:16:47;;;;;;;11.23;8.82;;;5.20;99.90;;;;;;5085447;28;20047;-47
2021/01/12 02:19:21;;;;;;;10.10;7.93;;;5.20;99.90;;;;;;5072753;28;20025;-45
2021/01/12 02:21:49;;;;;;;11.50;8.52;;;5.20;99.90;;;;;;5082250;28;20024;-44
2021/01/12 02:24:16;;;;;;;12.73;9.18;;;5.20;99.90;;;;;;5089198;28;20074;-44
2021/01/12 02:26:41;;;;;;;10.38;8.13;;;5.20;99.90;;;;;;5088696;28;20015;-44
2021/01/12 02:29:07;;;;;;;10.80;7.80;;;5.20;99.90;;;;;;5070235;28;20032;-48
2021/01/12 02:31:33;;;;;;;10.20;8.13;;;5.20;99.90;;;;;;5054420;28;20499;-47
2021/01/12 02:34:04;;;;;;;12.07;8.23;;;5.20;99.90;;;;;;5051665;28;20092;-48
2021/01/12 02:36:31;;;;;;;14.35;9.30;;;5.20;99.90;;;;;;5064349;28;20021;-48
2021/01/12 02:39:00;;;;;;;9.43;7.95;;;5.20;99.90;;;;;;5058616;28;20037;-48
2021/01/12 02:41:32;;;;;;;10.07;7.78;;;5.20;99.90;;;;;;5052935;28;20112;-44
2021/01/12 02:43:58;;;;;;;15.07;9.23;;;5.20;99.90;;;;;;5053000;28;20044;-45
2021/01/12 02:46:24;;;;;;;10.65;8.23;;;5.30;99.90;;;;;;5053563;28;20020;-45
2021/01/12 02:48:50;;;;;;;10.95;7.38;;;5.20;99.90;;;;;;5051837;28;20078;-46
2021/01/12 02:51:15;;;;;;;11.13;7.10;;;5.20;99.90;;;;;;5050948;28;20048;-47
2021/01/12 02:53:41;;;;;;;9.27;7.90;;;5.20;99.90;;;;;;5051179;28;20025;-44
2021/01/12 02:56:06;;;;;;;9.88;7.40;;;5.20;99.90;;;;;;5052410;28;20048;-45
2021/01/12 02:58:32;;;;;;;8.35;6.65;;;5.20;99.90;;;;;;5050341;28;20025;-44
2021/01/12 03:00:58;;;;;;;10.05;7.18;;;5.20;99.90;;;;;;5053174;28;20021;-47
2021/01/12 03:03:23;;;;;;;8.43;6.97;;;5.20;99.90;;;;;;5040959;23;20052;-57
2021/01/12 03:05:49;;;;;;;9.95;7.50;;;5.20;99.90;;;;;;5009452;28;20101;-52
2021/01/12 03:08:14;;;;;;;11.30;6.30;;;5.20;99.90;;;;;;5011596;28;20026;-54
2021/01/12 03:10:40;;;;;;;13.30;6.75;;;5.30;99.90;;;;;;5010426;28;20022;-56
2021/01/12 03:13:06;;;;;;;9.50;6.60;;;5.30;99.90;;;;;;5028753;28;20472;-58
2021/01/12 03:15:32;;;;;;;9.25;6.72;;;5.30;99.90;;;;;;5048501;28;20021;-60
2021/01/12 03:17:57;;;;;;;8.95;5.82;;;5.30;99.90;;;;;;5048523;28;20013;-60
2021/01/12 03:20:26;;;;;;;9.05;6.10;;;5.30;99.90;;;;;;5047239;28;20487;-57
2021/01/12 03:22:52;;;;;;;8.57;6.70;;;5.30;99.90;;;;;;5048224;28;20013;-54
2021/01/12 03:25:20;;;;;;;6.65;5.45;;;5.30;99.90;;;;;;5048139;28;20024;-53
2021/01/12 03:27:46;;;;;;;8.93;6.68;;;5.30;99.90;;;;;;5042586;28;20106;-52
2021/01/12 03:30:12;;;;;;;7.97;6.18;;;5.30;99.90;;;;;;5047063;28;20021;-53
2021/01/12 03:32:37;;;;;;;6.78;5.60;;;5.30;99.90;;;;;;5044285;28;20033;-57
2021/01/12 03:35:04;;;;;;;8.27;6.03;;;5.40;99.90;;;;;;5029392;28;20419;-53
2021/01/12 03:37:29;;;;;;;9.68;6.70;;;5.30;99.90;;;;;;5030795;28;20068;-55
2021/01/12 03:39:55;;;;;;;7.60;5.75;;;5.30;99.90;;;;;;5032618;28;20048;-57
2021/01/12 03:42:20;;;;;;;7.78;5.50;;;5.30;99.90;;;;;;5031132;28;20033;-55
2021/01/12 03:44:46;;;;;;;7.30;6.18;;;5.40;99.90;;;;;;5033170;28;20029;-56
2021/01/12 03:47:12;;;;;;;7.95;5.80;;;5.40;99.90;;;;;;5050793;28;20025;-55
2021/01/12 03:49:37;;;;;;;9.07;5.72;;;5.40;99.90;;;;;;5051729;28;20435;-55
2021/01/12 03:52:03;;;;;;;8.35;5.88;;;5.40;99.90;;;;;;5051967;28;20025;-55
2021/01/12 03:54:29;;;;;;;6.18;5.28;;;5.40;99.90;;;;;;5051901;28;20031;-56
2021/01/12 03:56:54;;;;;;;7.45;5.80;;;5.40;99.90;;;;;;5051189;28;20036;-57
2021/01/12 03:59:20;;;;;;;6.53;5.40;;;5.40;99.90;;;;;;5051731;28;20032;-55
2021/01/12 04:01:45;;;;;;;7.18;5.22;;;5.30;99.90;;;;;;5051914;28;20096;-54
2021/01/12 04:04:11;;;;;;;6.57;5.28;;;5.40;99.90;;;;;;5051406;28;20036;-55
2021/01/12 04:06:37;;;;;;;6.40;5.05;;;5.40;99.90;;;;;;5051911;28;20036;-55
2021/01/12 04:09:04;;;;;;;6.20;4.28;;;5.40;99.90;;;;;;5051029;28;20032;-54
2021/01/12 04:11:30;;;;;;;6.45;4.97;;;5.40;99.90;;;;;;5051790;28;20532;-56
2021/01/12 04:13:56;;;;;;;6.95;5.13;;;5.40;99.90;;;;;;5049546;28;20025;-55
2021/01/12 04:16:25;;;;;;;5.90;5.03;;;5.40;99.90;;;;;;5049930;28;20063;-57
2021/01/12 04:18:51;;;;;;;6.72;4.70;;;5.40;99.90;;;;;;5044639;28;20116;-56
2021/01/12 04:21:16;;;;;;;4.20;3.05;;;5.40;99.90;;;;;;5051571;28;20023;-55
2021/01/12 04:23:42;;;;;;;3.15;2.67;;;5.40;99.90;;;;;;5051390;28;20048;-56
2021/01/12 04:26:08;;;;;;;3.00;2.03;;;5.30;99.90;;;;;;5049742;28;20120;-59
2021/01/12 04:28:34;;;;;;;3.00;2.40;;;5.30;99.90;;;;;;5051328;28;20060;-56
2021/01/12 04:30:59;;;;;;;3.03;2.22;;;5.30;99.90;;;;;;5050162;28;20013;-56
2021/01/12 04:33:25;;;;;;;3.33;1.88;;;5.30;99.90;;;;;;5051047;28;20024;-53
2021/01/12 04:35:51;;;;;;;2.47;2.03;;;5.20;99.90;;;;;;5047678;28;20387;-57
2021/01/12 04:38:16;;;;;;;2.20;2.00;;;5.20;99.90;;;;;;5048688;28;20029;-59
2021/01/12 04:40:43;;;;;;;4.10;2.25;;;5.20;99.90;;;;;;5051214;28;20035;-57
2021/01/12 04:43:11;;;;;;;2.22;2.03;;;5.20;99.90;;;;;;5050394;28;20041;-56
2021/01/12 04:45:37;;;;;;;2.53;1.90;;;5.20;99.90;;;;;;5047839;28;20155;-55
2021/01/12 04:48:03;;;;;;;1.95;1.60;;;5.20;99.90;;;;;;5050310;28;20077;-56
2021/01/12 04:50:29;;;;;;;3.83;1.73;;;5.20;99.90;;;;;;5051075;28;20024;-57
2021/01/12 04:52:55;;;;;;;3.30;1.67;;;5.10;99.90;;;;;;5050608;28;20564;-56
2021/01/12 04:55:21;;;;;;;2.33;1.50;;;5.10;99.90;;;;;;5049192;28;20040;-58
2021/01/12 04:57:48;;;;;;;1.85;1.20;;;5.10;99.90;;;;;;5050641;28;20036;-58
2021/01/12 05:00:33;;;;;;;3.20;1.40;;;5.10;99.90;;;;;;5050499;28;20087;-56
2021/01/12 05:02:59;;;;;;;1.63;0.90;;;5.00;99.90;;;;;;5050238;28;20601;-57
2021/01/12 05:05:33;;;;;;;1.80;1.20;;;5.00;99.90;;;;;;5050399;28;20652;-59
2021/01/12 05:08:02;;;;;;;0.98;0.77;;;5.00;99.90;;;;;;5050610;28;20030;-57
2021/01/12 05:10:30;;;;;;;1.30;0.88;;;4.90;99.90;;;;;;5045730;28;20395;-53
2021/01/12 05:12:57;;;;;;;2.38;0.73;;;4.90;99.90;;;;;;5049909;28;20018;-56
2021/01/12 05:15:24;;;;;;;2.13;1.00;;;4.90;99.90;;;;;;5050172;28;20108;-55
2021/01/12 05:17:52;;;;;;;1.05;0.70;;;4.90;99.90;;;;;;5049924;28;20784;-57
2021/01/12 05:20:24;;;;;;;1.00;0.70;;;4.80;99.90;;;;;;5043067;28;20036;-57
2021/01/12 05:22:57;;;;;;;1.75;0.80;;;4.80;99.90;;;;;;5050126;28;20044;-57
2021/01/12 05:25:33;;;;;;;2.63;0.90;;;4.80;99.90;;;;;;5050299;28;20021;-57
2021/01/12 05:28:00;;;;;;;1.88;0.65;;;4.70;99.90;;;;;;5050202;28;20025;-56
2021/01/12 05:30:26;;;;;;;2.05;0.90;;;4.80;99.90;;;;;;5041357;28;20025;-57
2021/01/12 05:32:53;;;;;;;0.82;0.68;;;4.80;99.90;;;;;;5049359;28;20096;-59
2021/01/12 05:35:19;;;;;;;2.30;0.93;;;4.80;99.90;;;;;;5049997;28;20047;-55
2021/01/12 05:37:45;;;;;;;0.65;0.65;;;4.70;99.90;;;;;;5049113;28;20115;-56
2021/01/12 05:40:11;;;;;;;1.05;0.45;;;4.60;99.90;;;;;;5050507;28;20100;-55
2021/01/12 05:42:40;;;;;;;0.65;0.40;;;4.50;99.90;;;;;;5049919;28;20024;-58
2021/01/12 05:45:07;;;;;;;2.05;0.45;;;4.40;99.90;;;;;;5043940;28;20021;-55
2021/01/12 05:47:33;;;;;;;1.27;0.28;;;4.30;99.90;;;;;;5048141;28;20017;-58
2021/01/12 05:49:59;;;;;;;1.58;0.20;;;4.20;99.90;;;;;;5049873;28;20033;-60
2021/01/12 05:52:26;;;;;;;1.70;0.68;;;4.10;99.90;;;;;;5047610;28;20029;-59
2021/01/12 05:55:14;;;;;;;1.13;0.40;;;4.00;99.90;;;;;;5049814;28;20024;-60
2021/01/12 05:57:47;;;;;;;0.75;0.22;;;3.80;99.90;;;;;;5042706;28;20447;-61
2021/01/12 06:00:13;;;;;;;2.10;0.22;;;3.70;99.90;;;;;;5040198;28;20087;-60
2021/01/12 06:02:43;;;;;;;2.55;0.45;;;3.70;99.90;;;;;;5035452;28;20025;-60
2021/01/12 06:05:09;;;;;;;1.85;0.30;;;3.60;99.90;;;;;;5031676;28;20028;-59
2021/01/12 06:07:34;;;;;;;2.05;0.40;;;3.50;99.90;;;;;;5032709;28;20025;-60
2021/01/12 06:10:01;;;;;;;0.50;0.10;;;3.50;99.90;;;;;;5030944;28;20044;-61
2021/01/12 06:12:28;;;;;;;0.13;0.10;;;3.40;99.90;;;;;;5031088;28;20692;-60
2021/01/12 06:14:58;;;;;;;2.63;0.40;;;3.30;99.90;;;;;;5029544;28;20026;-61
2021/01/12 06:17:32;;;;;;;1.77;0.40;;;3.20;99.90;;;;;;5036232;28;20052;-60
2021/01/12 06:20:03;;;;;;;1.50;0.22;;;3.20;99.90;;;;;;5044089;28;20021;-61
2021/01/12 06:22:33;;;;;;;3.60;0.75;;;3.20;99.90;;;;;;5034456;28;20025;-60
2021/01/12 06:25:06;;;;;;;1.63;0.57;;;3.10;99.90;;;;;;5049140;28;20025;-60
2021/01/12 06:27:33;;;;;;;0.68;0.38;;;3.10;99.90;;;;;;5049282;28;20028;-59
2021/01/12 06:30:05;;;;;;;4.00;0.40;;;3.10;99.90;;;;;;5049175;28;20051;-59
2021/01/12 06:32:32;;;;;;;1.85;0.57;;;3.10;99.90;;;;;;5047146;28;20021;-57
2021/01/12 06:35:08;;;;;;;2.22;0.80;;;3.00;99.90;;;;;;5048279;28;20132;-59
2021/01/12 06:37:38;;;;;;;1.23;0.43;;;3.00;99.90;;;;;;5036814;28;20029;-56
2021/01/12 06:40:07;;;;;;;3.33;0.73;;;3.00;99.90;;;;;;5032151;28;20037;-58
2021/01/12 06:42:33;;;;;;;1.95;0.40;;;2.90;99.90;;;;;;5047054;28;20013;-58
2021/01/12 06:45:00;;;;;;;3.03;0.40;;;3.00;99.90;;;;;;5048652;28;20013;-57
2021/01/12 06:47:31;;;;;;;2.40;0.57;;;3.00;99.90;;;;;;5040888;28;20032;-58
2021/01/12 06:50:09;;;;;;;0.90;0.43;;;3.00;99.90;;;;;;5046991;28;20021;-61
2021/01/12 06:52:44;;;;;;;2.20;0.75;;;3.00;99.90;;;;;;5036315;28;20056;-57
2021/01/12 06:55:12;;;;;;;2.97;0.85;;;3.00;99.90;;;;;;5048744;28;20099;-56
2021/01/12 06:57:38;;;;;;;2.08;0.32;;;3.00;99.90;;;;;;5049003;28;20037;-59
2021/01/12 07:00:08;;;;;;;2.38;0.90;;;3.00;99.90;;;;;;5048872;28;20078;-60
2021/01/12 07:02:34;;;;;;;1.23;0.52;;;3.00;99.90;;;;;;5048172;28;20028;-60
2021/01/12 07:05:11;;;;;;;1.25;0.30;;;3.10;99.90;;;;;;5048273;28;20013;-58
2021/01/12 07:07:38;;;;;;;0.98;0.60;;;3.10;99.90;;;;;;5048529;28;20025;-59
2021/01/12 07:10:07;;;;;;;1.30;0.50;;;3.10;99.90;;;;;;5048538;28;20036;-60
2021/01/12 07:12:32;;;;;;;0.73;0.45;;;3.00;99.90;;;;;;5048602;28;20074;-58
2021/01/12 07:15:04;;;;;;;1.55;0.40;;;3.00;99.90;;;;;;5048244;28;20441;-59
2021/01/12 07:17:39;;;;;;;1.15;0.60;;;3.00;99.90;;;;;;5048370;28;20066;-60
2021/01/12 07:20:09;;;;;;;1.30;0.55;;;3.00;99.90;;;;;;5041337;28;20026;-60
2021/01/12 07:22:37;;;;;;;2.60;0.75;;;3.00;99.90;;;;;;5048928;28;20491;-60
2021/01/12 07:25:05;;;;;;;1.70;0.82;;;3.00;99.90;;;;;;5051005;28;20383;-60
2021/01/12 07:27:31;;;;;;;2.50;1.00;;;3.00;99.90;;;;;;5051168;28;20116;-58
2021/01/12 07:29:59;;;;;;;2.22;1.10;;;3.00;99.90;;;;;;5050152;28;20108;-59
2021/01/12 07:32:30;;;;;;;1.05;0.95;;;3.00;99.90;;;;;;5052197;28;20029;-59
2021/01/12 07:34:59;;;;;;;1.98;1.00;;;3.00;99.90;;;;;;5049293;28;20402;-60
2021/01/12 07:37:27;;;;;;;1.27;0.47;;;3.00;99.90;;;;;;5050846;28;20401;-61
2021/01/12 07:39:53;;;;;;;3.50;0.90;;;2.90;99.90;;;;;;5050702;28;20502;-60
2021/01/12 07:42:19;;;;;;;2.50;0.70;;;3.00;99.90;;;;;;5052029;28;20506;-60
2021/01/12 07:44:44;;;;;;;0.70;0.50;;;2.90;99.90;;;;;;5046010;28;20095;-60
2021/01/12 07:47:10;;;;;;;1.30;0.70;;;2.90;99.90;;;;;;5052276;28;20021;-60
2021/01/12 07:49:36;;;;;;;1.13;0.63;;;2.90;99.90;;;;;;5045971;28;20092;-58
2021/01/12 07:52:01;;;;;;;1.15;0.85;;;2.90;99.90;;;;;;5037611;28;20048;-61
2021/01/12 07:54:28;;;;;;;1.52;0.70;;;2.90;99.90;;;;;;5050099;28;20020;-59
2021/01/12 07:56:54;;;;;;;3.80;0.90;;;2.90;99.90;;;;;;5051495;28;20025;-59
2021/01/12 07:59:21;;;;;;;2.67;0.68;;;2.90;99.90;;;;;;5051713;28;20040;-59
2021/01/12 08:01:47;;;;;;;2.60;0.80;;;2.90;99.90;;;;;;5052074;28;20027;-60
2021/01/12 08:04:13;;;;;;;2.20;1.00;;;2.80;99.90;;;;;;5050995;28;20045;-59
2021/01/12 08:06:41;;;;;;;3.00;1.50;;;2.90;99.90;;;;;;5051645;28;20040;-59
2021/01/12 08:09:07;;;;;;;4.35;0.88;;;2.90;99.90;;;;;;5051507;28;20550;-58
2021/01/12 08:11:33;;;;;;;5.53;1.50;;;2.90;99.90;;;;;;5051953;28;20109;-61
2021/01/12 08:14:08;;;;;;;2.20;1.00;;;2.90;99.90;;;;;;5051242;28;20083;-59
2021/01/12 08:16:34;;;;;;;3.78;1.10;;;2.80;99.90;;;;;;5040728;28;20037;-59
2021/01/12 08:19:01;;;;;;;4.22;1.25;;;2.90;99.90;;;;;;5045146;28;20044;-60
2021/01/12 08:21:26;;;;;;;4.13;1.25;;;2.80;99.90;;;;;;5050677;28;20430;-60
2021/01/12 08:24:02;;;;;;;3.33;0.82;;;2.80;99.90;;;;;;5050583;28;20078;-59
2021/01/12 08:26:27;;;;;;;1.13;0.65;;;2.90;99.90;;;;;;5044937;28;20522;-61
2021/01/12 08:28:53;;;;;;;3.38;0.65;;;2.90;99.90;;;;;;5048961;28;20052;-60
2021/01/12 08:31:19;;;;;;;5.07;0.90;;;2.80;99.90;;;;;;5036772;28;20613;-58
2021/01/12 08:33:47;;;;;;;1.85;0.98;;;2.80;99.90;;;;;;5032634;28;20018;-62
2021/01/12 08:36:20;;;;;;;4.38;0.80;;;2.80;99.90;;;;;;5036462;28;20516;-60
2021/01/12 08:38:52;;;;;;;2.67;0.90;;;2.80;99.90;;;;;;5032516;28;20044;-62
2021/01/12 08:41:18;;;;;;;2.10;1.42;;;2.80;99.90;;;;;;5036201;28;20055;-60
2021/01/12 08:43:46;;;;;;;3.78;1.17;;;2.70;99.90;;;;;;5050888;28;20033;-60
2021/01/12 08:46:11;;;;;;;3.35;1.30;;;2.70;99.90;;;;;;5050031;28;20492;-60
2021/01/12 08:48:48;;;;;;;3.42;1.30;;;2.70;99.90;;;;;;5050720;28;20025;-59
2021/01/12 08:51:17;;;;;;;2.38;0.75;;;2.70;99.90;;;;;;5050796;28;20485;-60
2021/01/12 08:53:46;;;;;;;2.15;1.00;;;2.70;99.90;;;;;;5048160;28;20025;-59
2021/01/12 08:56:12;;;;;;;1.33;0.90;;;2.80;99.90;;;;;;5049113;28;20043;-60
2021/01/12 08:58:38;;;;;;;6.72;0.98;;;2.70;99.90;;;;;;5048839;28;20065;-61
2021/01/12 09:01:04;;;;;;;3.70;0.63;;;2.80;99.90;;;;;;5049253;28;20427;-60
2021/01/12 09:03:30;;;;;;;5.07;1.02;;;2.70;99.90;;;;;;5050143;28;20053;-59
2021/01/12 09:05:56;;;;;;;3.40;0.80;;;2.70;99.90;;;;;;5050005;28;20013;-61
2021/01/12 09:08:23;;;;;;;3.17;1.20;;;2.70;99.90;;;;;;5051693;28;20088;-59
2021/01/12 09:10:49;;;;;;;3.95;1.52;;;2.60;99.90;;;;;;5049898;28;20025;-61
2021/01/12 09:13:16;;;;;;;8.43;0.80;;;2.60;99.90;;;;;;5049835;28;20399;-61
2021/01/12 09:15:49;;;;;;;7.40;1.08;;;2.50;99.90;;;;;;5045688;28;20553;-60
2021/01/12 09:18:19;;;;;;;4.00;0.75;;;2.50;99.90;;;;;;5052782;28;20100;-61
2021/01/12 09:21:03;;;;;;;7.38;1.30;;;2.50;99.90;;;;;;5053749;28;20024;-62
2021/01/12 09:23:29;;;;;;;4.30;1.00;;;2.50;99.90;;;;;;5048833;28;20052;-61
2021/01/12 09:26:02;;;;;;;4.13;0.77;;;2.40;99.90;;;;;;5049381;28;20425;-61
2021/01/12 09:28:35;;;;;;;4.00;1.38;;;2.40;99.90;;;;;;5048047;28;20025;-60
2021/01/12 09:31:13;;;;;;;2.92;0.98;;;2.40;99.90;;;;;;5036281;28;20017;-60
2021/01/12 09:33:44;;;;;;;6.93;1.45;;;2.40;99.90;;;;;;5031719;28;20505;-60
2021/01/12 09:36:14;;;;;;;6.60;1.33;;;2.50;99.90;;;;;;5032131;28;20442;-62
2021/01/12 09:38:48;;;;;;;3.72;0.90;;;2.50;99.90;;;;;;5033913;28;20026;-60
2021/01/12 09:41:15;;;;;;;2.50;0.60;;;2.70;99.90;;;;;;5033944;28;20475;-59
2021/01/12 09:43:42;;;;;;;2.20;1.30;;;2.70;99.90;;;;;;5031912;28;20018;-58
2021/01/12 09:46:09;;;;;;;5.65;1.33;;;2.90;99.90;;;;;;5030418;28;20017;-60
2021/01/12 09:48:36;;;;;;;3.90;0.80;;;2.90;99.90;;;;;;5030103;28;20502;-62
2021/01/12 09:51:02;;;;;;;3.75;1.17;;;3.00;99.90;;;;;;5031400;28;20017;-58
2021/01/12 09:53:28;;;;;;;2.72;0.82;;;3.10;99.90;;;;;;5030375;28;20324;-62
2021/01/12 09:55:54;;;;;;;3.83;1.67;;;3.20;99.90;;;;;;5029890;28;20480;-60
2021/01/12 09:58:19;;;;;;;3.30;1.10;;;3.20;99.90;;;;;;5030053;28;20014;-58
2021/01/12 10:00:45;;;;;;;4.95;1.05;;;3.30;99.90;;;;;;5032495;28;20644;-60
2021/01/12 10:03:11;;;;;;;4.72;0.70;;;3.30;99.90;;;;;;5031073;28;20182;-58
2021/01/12 10:05:37;;;;;;;4.47;1.15;;;3.40;99.90;;;;;;5034170;28;20056;-56
2021/01/12 10:08:04;;;;;;;1.90;0.90;;;3.40;99.90;;;;;;5033013;28;20598;-58
2021/01/12 10:10:30;;;;;;;2.50;1.15;;;3.50;99.90;;;;;;5035665;28;20654;-59
2021/01/12 10:12:55;;;;;;;7.57;1.10;;;3.60;99.90;;;;;;5030118;28;20049;-59
2021/01/12 10:15:21;;;;;;;1.65;0.80;;;3.60;99.90;;;;;;5029866;28;20057;-58
2021/01/12 10:17:47;;;;;;;4.53;0.85;;;3.60;99.90;;;;;;5033382;28;20501;-58
2021/01/12 10:20:12;;;;;;;1.55;0.82;;;3.60;99.90;;;;;;5031731;28;20096;-58
2021/01/12 10:22:38;;;;;;;3.03;1.08;;;3.60;99.90;;;;;;5027596;28;20028;-57
2021/01/12 10:25:05;;;;;;;3.45;0.77;;;3.70;99.90;;;;;;5030364;28;20022;-61
2021/01/12 10:27:37;;;;;;;5.22;1.17;;;3.80;99.90;;;;;;5029461;28;20021;-59
2021/01/12 10:30:08;;;;;;;3.80;1.05;;;3.80;99.90;;;;;;5028535;28;20116;-58
2021/01/12 10:32:34;;;;;;;2.95;0.82;;;3.90;99.90;;;;;;5031663;28;20037;-58
2021/01/12 10:35:00;;;;;;;2.42;0.60;;;3.90;99.90;;;;;;5028832;28;20030;-58
2021/01/12 10:37:27;;;;;;;5.82;0.70;;;3.90;99.90;;;;;;5028782;28;20028;-58
2021/01/12 10:39:57;;;;;;;4.72;0.93;;;3.90;99.90;;;;;;5029239;28;20463;-59
2021/01/12 10:42:23;;;;;;;5.40;0.80;;;3.90;99.90;;;;;;5028386;28;20488;-59
2021/01/12 10:44:49;;;;;;;6.88;1.02;;;4.00;99.90;;;;;;5031283;28;20035;-57
2021/01/12 10:47:14;;;;;;;3.33;0.40;;;4.00;99.90;;;;;;5029330;28;20033;-59
2021/01/12 10:49:40;;;;;;;1.33;0.57;;;4.00;99.90;;;;;;5030199;28;20021;-60
2021/01/12 10:52:06;;;;;;;2.65;0.70;;;4.10;99.90;;;;;;5031265;28;20055;-57
2021/01/12 10:54:33;;;;;;;2.95;0.73;;;4.10;99.90;;;;;;5029381;28;20057;-57
2021/01/12 10:57:00;;;;;;;1.58;0.57;;;4.10;99.90;;;;;;5028964;28;20453;-60
2021/01/12 10:59:29;;;;;;;5.07;0.70;;;4.10;99.90;;;;;;5029200;28;20392;-59
2021/01/12 11:02:00;;;;;;;4.78;1.30;;;4.10;99.90;;;;;;5028928;28;20040;-60
2021/01/12 11:04:25;;;;;;;1.55;1.00;;;4.10;99.90;;;;;;5029180;28;20036;-60
2021/01/12 11:06:52;;;;;;;3.47;1.00;;;4.20;99.90;;;;;;5030445;28;20022;-56
2021/01/12 11:09:25;;;;;;;4.53;1.05;;;4.20;99.90;;;;;;5032373;28;20028;-57
2021/01/12 11:11:51;;;;;;;4.30;1.20;;;4.20;99.90;;;;;;5030414;28;20013;-60
2021/01/12 11:14:21;;;;;;;3.97;1.00;;;4.20;99.90;;;;;;5028953;28;20029;-58
2021/01/12 11:16:47;;;;;;;5.88;0.80;;;4.20;99.90;;;;;;5031829;28;20021;-58
2021/01/12 11:19:16;;;;;;;3.33;0.60;;;4.20;99.90;;;;;;5035102;28;20183;-58
2021/01/12 11:21:46;;;;;;;4.63;1.17;;;4.30;99.90;;;;;;5028407;28;20024;-58
2021/01/12 11:24:15;;;;;;;3.58;1.40;;;4.30;99.90;;;;;;5034456;28;20031;-59
2021/01/12 11:26:42;;;;;;;6.78;1.17;;;4.30;99.90;;;;;;5030217;28;20045;-61
2021/01/12 11:29:09;;;;;;;3.15;0.82;;;4.20;99.90;;;;;;5030368;28;20399;-58
2021/01/12 11:31:35;;;;;;;4.70;1.35;;;4.20;99.90;;;;;;5029707;28;20128;-62
2021/01/12 11:34:01;;;;;;;4.30;1.13;;;4.20;99.90;;;;;;5030678;28;20032;-61
2021/01/12 11:36:42;;;;;;;4.53;1.15;;;4.20;99.90;;;;;;5028713;28;20394;-61
2021/01/12 11:39:09;;;;;;;7.70;1.13;;;4.20;99.90;;;;;;5033760;28;20025;-59
2021/01/12 11:41:46;;;;;;;4.35;1.13;;;4.20;99.90;;;;;;5039533;28;20017;-60
2021/01/12 11:44:12;;;;;;;3.33;1.20;;;4.20;99.90;;;;;;5028464;28;20048;-61
2021/01/12 11:46:37;;;;;;;7.30;1.70;;;4.20;99.90;;;;;;5030417;28;20018;-62
2021/01/12 11:49:03;;;;;;;5.78;1.65;;;4.20;99.90;;;;;;5029983;28;20079;-60
2021/01/12 11:51:38;;;;;;;8.38;1.48;;;4.20;99.90;;;;;;5029092;28;20018;-60
2021/01/12 11:54:05;;;;;;;4.78;0.95;;;4.20;99.90;;;;;;5038453;28;20117;-60
2021/01/12 11:56:31;;;;;;;7.88;0.90;;;4.20;99.90;;;;;;5031215;28;20030;-59
2021/01/12 11:58:57;;;;;;;3.10;0.80;;;4.20;99.90;;;;;;5030702;28;20025;-57
2021/01/12 12:01:22;;;;;;;5.30;0.82;;;4.20;99.90;;;;;;5028325;28;20384;-61
2021/01/12 12:03:48;;;;;;;5.80;1.10;;;4.20;99.90;;;;;;5027254;28;20055;-61
2021/01/12 12:06:13;;;;;;;6.85;1.27;;;4.20;99.90;;;;;;5031117;28;20029;-59
2021/01/12 12:08:39;;;;;;;4.25;0.80;;;4.20;99.90;;;;;;5037352;28;20030;-62
2021/01/12 12:11:05;;;;;;;6.85;1.13;;;4.20;99.90;;;;;;5034407;28;20711;-60
2021/01/12 12:13:31;;;;;;;3.28;0.85;;;4.10;99.90;;;;;;5032127;28;20120;-58
2021/01/12 12:15:57;;;;;;;3.35;0.95;;;4.10;99.90;;;;;;5031867;28;20101;-59
2021/01/12 12:18:23;;;;;;;6.90;1.27;;;4.20;99.90;;;;;;5035251;28;20025;-61
2021/01/12 12:20:48;;;;;;;2.88;0.77;;;4.20;99.90;;;;;;5030702;28;20021;-62
2021/01/12 12:23:14;;;;;;;2.47;1.15;;;4.20;99.90;;;;;;5035879;28;20018;-61
2021/01/12 12:25:40;;;;;;;5.00;0.75;;;4.20;99.90;;;;;;5035247;28;20392;-57
2021/01/12 12:28:05;;;;;;;8.20;1.00;;;4.20;99.90;;;;;;5034108;28;20088;-59
2021/01/12 12:30:31;;;;;;;3.95;0.75;;;4.20;99.90;;;;;;5032324;28;20029;-58
2021/01/12 12:32:56;;;;;;;2.33;1.27;;;4.20;99.90;;;;;;5032227;28;20025;-61
2021/01/12 12:35:22;;;;;;;7.53;1.23;;;4.20;99.90;;;;;;5035119;28;20017;-60
2021/01/12 12:37:48;;;;;;;2.90;1.13;;;4.20;99.90;;;;;;5029352;28;20032;-60
2021/01/12 12:40:14;;;;;;;5.60;1.20;;;4.20;99.90;;;;;;5036450;28;20392;-59
2021/01/12 12:42:40;;;;;;;2.50;1.10;;;4.20;99.90;;;;;;5035217;28;20029;-60
2021/01/12 12:45:06;;;;;;;10.02;1.33;;;4.20;99.90;;;;;;5035497;28;20361;-58
2021/01/12 12:47:32;;;;;;;5.97;1.17;;;4.20;99.90;;;;;;5032623;28;20032;-60
2021/01/12 12:49:57;;;;;;;6.22;1.27;;;4.20;99.90;;;;;;5031990;28;20022;-62
2021/01/12 12:52:23;;;;;;;2.70;1.27;;;4.20;99.90;;;;;;5031707;28;20510;-58
2021/01/12 12:54:49;;;;;;;3.35;1.00;;;4.30;99.90;;;;;;5032353;28;20415;-60